Time;durP1;ratioP1;P1;durP2;ratioP2;P2;SDS_P1;SDS_P2;PMS_P1;PMS_P2;Temp;Humidity;BMP_temperature;BMP_pressure;BME280_temperature;BME280_humidity;BME280_pressure;Samples;Min_cycle;Max_cycle;Signal;HPM_P1;HPM_P2
2022/03/05 00:00:33;;;;;;;22.30;11.77;;;;;;;1.46;80.52;100718.28;4995210;28;20050;-76
2022/03/05 00:02:59;;;;;;;18.90;11.55;;;;;;;1.76;80.83;100697.09;5009492;28;20514;-75
2022/03/05 00:05:25;;;;;;;19.48;15.20;;;;;;;1.89;80.49;100717.44;5007805;28;20484;-75
2022/03/05 00:07:50;;;;;;;18.02;12.95;;;;;;;1.97;79.62;100716.88;5011233;28;20121;-75
2022/03/05 00:10:18;;;;;;;25.90;20.33;;;;;;;1.92;79.53;100703.75;5012945;28;20092;-74
2022/03/05 00:12:44;;;;;;;23.48;15.23;;;;;;;1.87;79.91;100713.03;5011520;28;20046;-75
2022/03/05 00:15:10;;;;;;;19.85;12.75;;;;;;;2.21;78.76;100715.25;5010446;28;20026;-74
2022/03/05 00:17:35;;;;;;;25.63;16.67;;;;;;;2.16;78.50;100714.19;5011887;28;20370;-74
2022/03/05 00:23:59;;;;;;;22.25;15.27;;;;;;;2.02;79.06;100716.22;5010711;28;20079;-74
2022/03/05 00:26:25;;;;;;;29.67;18.63;;;;;;;2.07;78.54;100714.69;5001792;28;20046;-74
2022/03/05 00:28:51;;;;;;;24.63;18.00;;;;;;;1.71;79.67;100713.22;5012769;28;20042;-75
2022/03/05 00:31:17;;;;;;;18.15;13.35;;;;;;;1.74;79.68;100718.56;5010784;28;20065;-75
2022/03/05 00:34:28;;;;;;;23.35;18.48;;;;;;;1.64;80.43;100717.31;5000247;28;20076;-74
2022/03/05 00:36:53;;;;;;;24.35;18.35;;;;;;;1.52;81.31;100707.31;5009458;28;20180;-75
2022/03/05 00:39:19;;;;;;;29.27;19.88;;;;;;;1.56;80.34;100705.75;5010435;28;20501;-75
2022/03/05 00:41:44;;;;;;;20.30;13.15;;;;;;;1.88;79.53;100709.63;5010455;28;20046;-76
2022/03/05 00:44:10;;;;;;;22.30;12.90;;;;;;;1.87;79.35;100713.03;5008545;28;20072;-75
2022/03/05 00:46:35;;;;;;;24.35;18.02;;;;;;;1.98;78.98;100716.94;4998492;28;20418;-75
2022/03/05 00:49:01;;;;;;;21.80;13.38;;;;;;;2.10;78.70;100709.63;5003437;28;20524;-75
2022/03/05 00:51:26;;;;;;;23.52;13.10;;;;;;;2.14;78.46;100709.78;4992949;28;20101;-74
2022/03/05 00:53:52;;;;;;;21.20;12.82;;;;;;;1.88;79.57;100709.63;5003430;28;20438;-75
2022/03/05 00:56:17;;;;;;;22.83;17.17;;;;;;;1.63;79.44;100712.94;5010996;28;20381;-74
2022/03/05 01:02:42;;;;;;;18.90;12.82;;;;;;;1.95;78.19;100705.59;5010545;28;20505;-75
2022/03/05 01:05:47;;;;;;;29.55;20.52;;;;;;;1.99;78.55;100702.28;4993933;28;20053;-75
2022/03/05 01:08:13;;;;;;;24.08;12.75;;;;;;;2.07;77.99;100706.06;5002472;28;20084;-75
2022/03/05 01:10:38;;;;;;;17.50;10.80;;;;;;;2.16;77.42;100683.13;5013540;28;20037;-75
2022/03/05 01:13:04;;;;;;;23.95;17.08;;;;;;;1.95;78.33;100700.41;5010485;28;20137;-75
2022/03/05 01:15:29;;;;;;;22.27;16.50;;;;;;;1.54;79.06;100704.78;4999954;28;20454;-75
2022/03/05 01:17:55;;;;;;;23.90;19.40;;;;;;;1.51;79.61;100709.84;4999092;28;20037;-75
2022/03/05 01:20:20;;;;;;;28.15;19.05;;;;;;;1.44;80.21;100693.19;5011988;28;20053;-75
2022/03/05 01:23:19;;;;;;;24.30;17.70;;;;;;;1.31;81.06;100701.25;5012058;28;20049;-75
2022/03/05 01:25:45;;;;;;;16.33;11.40;;;;;;;1.66;79.95;100698.44;5005615;28;20050;-75
2022/03/05 01:28:10;;;;;;;19.92;13.45;;;;;;;1.58;80.00;100706.69;5004738;28;20061;-75
2022/03/05 01:30:36;;;;;;;20.50;11.48;;;;;;;1.53;80.03;100696.16;5008220;28;20049;-75
2022/03/05 01:33:01;;;;;;;26.33;18.98;;;;;;;1.59;80.06;100704.19;5008564;28;20030;-74
2022/03/05 01:35:27;;;;;;;18.58;12.95;;;;;;;1.61;80.14;100694.75;5008622;28;20046;-76
2022/03/05 01:37:52;;;;;;;21.52;15.55;;;;;;;1.96;79.42;100700.44;5003086;28;20050;-76
2022/03/05 01:40:18;;;;;;;23.88;18.13;;;;;;;1.68;78.82;100689.00;5006302;28;20045;-76
2022/03/05 01:42:43;;;;;;;33.42;20.65;;;;;;;1.82;79.52;100686.97;5007798;28;20042;-76
2022/03/05 01:45:12;;;;;;;20.08;11.43;;;;;;;1.93;78.75;100689.13;5009989;28;20022;-74
2022/03/05 01:47:39;;;;;;;18.75;12.35;;;;;;;1.83;79.04;100699.09;5007835;28;20493;-74
2022/03/05 01:50:05;;;;;;;22.65;18.23;;;;;;;1.65;78.85;100698.34;5001242;28;20133;-75
2022/03/05 01:52:30;;;;;;;23.95;19.20;;;;;;;1.50;80.23;100690.88;5009994;28;20052;-75
2022/03/05 01:54:56;;;;;;;28.42;20.17;;;;;;;1.01;81.96;100704.31;5000503;28;20046;-75
2022/03/05 01:57:21;;;;;;;24.05;18.05;;;;;;;1.38;81.27;100698.09;5008158;28;20033;-76
2022/03/05 01:59:48;;;;;;;24.70;12.85;;;;;;;1.25;81.36;100707.06;5012526;28;20458;-76
2022/03/05 02:05:33;;;;;;;22.40;12.45;;;;;;;1.04;82.18;100707.91;5013263;28;20042;-76
2022/03/05 02:07:58;;;;;;;20.15;11.30;;;;;;;1.37;81.51;100696.34;5013534;28;20048;-75
2022/03/05 02:10:24;;;;;;;23.50;13.23;;;;;;;1.49;80.81;100709.78;5012031;28;20038;-75
2022/03/05 02:12:49;;;;;;;28.48;20.10;;;;;;;1.59;80.45;100709.34;5035807;28;20053;-75
2022/03/05 02:15:15;;;;;;;21.65;13.02;;;;;;;1.58;80.33;100704.09;5013517;28;20014;-75
2022/03/05 02:17:41;;;;;;;18.65;12.05;;;;;;;1.65;80.17;100699.22;5005611;28;20040;-75
2022/03/05 02:20:56;;;;;;;22.95;12.93;;;;;;;1.74;79.78;100703.03;5009837;28;20050;-74
2022/03/05 02:24:08;;;;;;;28.13;12.02;;;;;;;1.87;79.42;100710.44;5010347;28;20045;-74
2022/03/05 02:26:34;;;;;;;21.00;14.30;;;;;;;1.44;79.82;100703.53;5013705;28;20046;-76
2022/03/05 02:29:00;;;;;;;19.48;12.05;;;;;;;1.43;80.58;100705.25;5013619;28;20087;-76
2022/03/05 02:31:25;;;;;;;26.67;17.67;;;;;;;1.84;79.55;100712.91;5002425;28;20053;-75
2022/03/05 02:33:52;;;;;;;19.92;13.38;;;;;;;1.56;79.87;100713.50;5009666;28;20132;-75
2022/03/05 02:36:23;;;;;;;21.88;14.02;;;;;;;1.76;78.93;100703.97;5005132;28;20024;-75
2022/03/05 02:38:50;;;;;;;24.15;18.77;;;;;;;1.87;79.01;100711.34;5011694;28;20053;-75
2022/03/05 02:41:18;;;;;;;27.38;21.40;;;;;;;1.34;79.97;100710.03;5003807;28;20056;-76
2022/03/05 02:43:44;;;;;;;25.42;19.85;;;;;;;1.01;81.23;100709.47;5011604;28;20042;-75
2022/03/05 02:46:10;;;;;;;23.30;14.80;;;;;;;1.02;81.75;100734.50;5012518;28;20053;-75
2022/03/05 02:49:17;;;;;;;24.10;20.38;;;;;;;0.96;82.33;100732.53;5014297;28;20042;-76
2022/03/05 02:51:43;;;;;;;28.10;20.98;;;;;;;1.58;80.43;100733.44;5011129;28;20042;-75
2022/03/05 02:54:08;;;;;;;17.90;14.43;;;;;;;1.68;79.84;100716.56;5013304;28;20362;-75
2022/03/05 02:56:34;;;;;;;22.52;14.90;;;;;;;1.35;80.26;100740.22;5012264;28;20454;-76
2022/03/05 02:58:59;;;;;;;24.55;15.98;;;;;;;1.40;80.93;100728.38;5010449;28;20076;-75
2022/03/05 03:01:25;;;;;;;19.48;15.15;;;;;;;1.65;80.11;100724.22;5012064;28;20050;-75
2022/03/05 03:03:51;;;;;;;30.60;23.10;;;;;;;1.68;79.20;100722.63;5012624;28;20030;-75
2022/03/05 03:06:16;;;;;;;36.65;22.95;;;;;;;1.66;79.09;100723.38;5010018;28;20113;-75
2022/03/05 03:08:42;;;;;;;28.10;22.92;;;;;;;1.71;78.72;100729.66;5004676;28;20478;-76
2022/03/05 03:11:08;;;;;;;28.50;16.73;;;;;;;1.90;78.38;100747.69;5011459;28;20543;-74
2022/03/05 03:14:20;;;;;;;29.73;14.85;;;;;;;1.33;79.98;100740.97;5011120;28;20390;-74
2022/03/05 03:16:46;;;;;;;28.33;17.38;;;;;;;1.66;78.91;100749.25;5010016;28;20040;-74
2022/03/05 03:19:11;;;;;;;32.47;21.27;;;;;;;1.43;78.83;100741.44;5011707;28;20390;-75
2022/03/05 03:21:37;;;;;;;25.10;19.55;;;;;;;1.71;78.62;100745.19;5011688;28;20501;-76
2022/03/05 03:24:02;;;;;;;21.23;14.85;;;;;;;1.66;78.67;100739.81;5002756;28;20467;-76
2022/03/05 03:26:27;;;;;;;29.70;22.17;;;;;;;1.81;78.54;100752.47;5013280;28;20034;-75
2022/03/05 03:28:53;;;;;;;33.20;21.73;;;;;;;1.80;77.51;100740.38;5012220;28;20045;-76
2022/03/05 03:31:18;;;;;;;22.55;15.77;;;;;;;1.52;78.86;100734.88;5011487;28;20463;-76
2022/03/05 03:33:44;;;;;;;22.23;14.52;;;;;;;1.78;77.84;100752.38;5011486;28;20041;-75
2022/03/05 03:36:09;;;;;;;24.77;16.27;;;;;;;1.92;76.73;100755.50;5011348;28;20022;-75
2022/03/05 03:45:53;;;;;;;33.38;24.08;;;;;;;1.82;77.37;100750.78;5011037;28;20095;-75
2022/03/05 03:48:57;;;;;;;29.85;23.30;;;;;;;2.17;76.28;100749.59;5004104;28;20048;-74
2022/03/05 03:51:23;;;;;;;31.42;23.10;;;;;;;1.62;77.40;100742.22;5013046;28;20478;-75
2022/03/05 03:53:48;;;;;;;29.80;23.00;;;;;;;1.85;77.40;100749.19;5010554;28;20045;-74
2022/03/05 03:56:14;;;;;;;26.80;15.35;;;;;;;2.11;76.59;100752.81;5012386;28;20122;-74
2022/03/05 03:58:40;;;;;;;38.63;21.80;;;;;;;2.27;75.70;100754.31;5009718;28;20057;-75
2022/03/05 04:01:06;;;;;;;33.80;23.33;;;;;;;2.27;75.62;100761.19;5011062;28;20367;-74
2022/03/05 04:03:31;;;;;;;22.80;15.50;;;;;;;2.13;75.33;100752.00;5003447;28;20546;-74
2022/03/05 04:09:52;;;;;;;32.22;23.50;;;;;;;2.21;75.83;100766.13;5011360;28;20172;-76
2022/03/05 04:15:27;;;;;;;33.88;23.45;;;;;;;2.35;74.99;100762.38;5001955;28;20128;-75
2022/03/05 04:17:52;;;;;;;26.80;16.65;;;;;;;2.53;73.95;100765.69;5006711;28;20113;-75
2022/03/05 04:20:18;;;;;;;46.15;24.95;;;;;;;2.28;74.55;100752.59;5007314;28;20550;-75
2022/03/05 04:26:04;;;;;;;33.60;24.50;;;;;;;2.21;74.24;100756.66;4999736;28;20062;-75
2022/03/05 04:28:29;;;;;;;31.73;24.60;;;;;;;2.28;74.75;100763.84;4997196;28;20101;-77
2022/03/05 04:30:55;;;;;;;33.20;22.40;;;;;;;2.15;74.46;100765.88;5007775;28;20034;-76
2022/03/05 04:33:20;;;;;;;30.50;23.63;;;;;;;2.15;73.95;100759.00;5009429;28;20026;-76
2022/03/05 04:35:46;;;;;;;27.05;18.15;;;;;;;2.11;74.55;100763.19;5011734;28;20026;-76
2022/03/05 04:38:11;;;;;;;37.92;24.45;;;;;;;2.48;74.54;100771.50;5009346;28;20049;-76
2022/03/05 04:41:25;;;;;;;31.02;23.33;;;;;;;2.43;74.20;100775.63;5009568;28;20041;-75
2022/03/05 04:43:51;;;;;;;35.00;25.17;;;;;;;2.38;74.06;100782.31;5001822;28;20058;-75
2022/03/05 04:46:16;;;;;;;29.83;22.67;;;;;;;1.93;74.51;100787.44;5010463;28;20096;-76
2022/03/05 04:48:42;;;;;;;36.78;25.63;;;;;;;2.17;74.72;100790.13;5008922;28;20041;-75
2022/03/05 04:54:17;;;;;;;32.80;23.77;;;;;;;2.28;73.55;100786.25;5001581;28;20416;-76
2022/03/05 04:56:43;;;;;;;32.83;23.52;;;;;;;2.22;73.99;100797.25;5010876;28;20030;-76
2022/03/05 04:59:09;;;;;;;37.40;26.95;;;;;;;2.13;73.65;100802.09;5010115;28;20046;-75
2022/03/05 05:02:24;;;;;;;33.35;23.58;;;;;;;2.29;73.92;100800.97;5012430;28;20112;-75
2022/03/05 05:04:50;;;;;;;29.70;23.88;;;;;;;1.94;74.04;100803.00;5002693;28;20448;-75
2022/03/05 05:07:15;;;;;;;27.38;22.45;;;;;;;2.29;73.91;100809.63;5011927;28;20137;-76
2022/03/05 05:09:41;;;;;;;31.70;22.52;;;;;;;2.07;74.44;100814.75;5011806;28;20096;-76
2022/03/05 05:12:07;;;;;;;31.23;23.48;;;;;;;2.07;74.40;100817.34;5007876;28;20477;-75
2022/03/05 05:14:33;;;;;;;36.95;24.40;;;;;;;2.19;73.40;100811.78;5009926;28;20056;-75
2022/03/05 05:16:58;;;;;;;35.35;24.40;;;;;;;1.96;73.50;100808.25;5009583;28;20478;-75
2022/03/05 05:19:24;;;;;;;37.47;25.17;;;;;;;2.08;73.36;100827.78;5009343;28;20060;-74
2022/03/05 05:21:50;;;;;;;34.15;26.15;;;;;;;2.05;74.37;100821.56;5005872;28;20493;-75
2022/03/05 05:24:15;;;;;;;36.88;25.55;;;;;;;1.99;74.34;100835.16;5001265;28;20072;-74
2022/03/05 05:27:23;;;;;;;37.22;24.90;;;;;;;1.24;76.81;100843.16;5008288;28;20440;-74
2022/03/05 05:29:49;;;;;;;30.50;22.17;;;;;;;1.38;76.34;100841.19;5008639;28;20121;-75
2022/03/05 05:32:14;;;;;;;32.17;24.92;;;;;;;1.75;75.33;100845.34;5010188;28;20038;-75
2022/03/05 05:34:41;;;;;;;36.75;25.88;;;;;;;1.55;75.53;100841.91;5009756;28;20482;-76
2022/03/05 05:37:07;;;;;;;43.03;25.00;;;;;;;1.60;75.50;100847.28;5007496;28;20042;-76
2022/03/05 05:39:33;;;;;;;36.85;26.25;;;;;;;1.59;75.80;100850.69;5009271;28;20045;-74
2022/03/05 05:41:59;;;;;;;32.97;24.02;;;;;;;1.55;75.83;100846.22;5010020;28;20034;-74
2022/03/05 05:44:24;;;;;;;27.33;18.63;;;;;;;1.68;75.81;100864.88;5006289;28;20124;-74
2022/03/05 05:46:50;;;;;;;37.45;25.55;;;;;;;2.03;74.29;100865.50;5009837;28;20108;-76
2022/03/05 05:49:15;;;;;;;48.67;24.10;;;;;;;1.83;74.79;100866.38;5009404;28;20030;-74
2022/03/05 05:51:41;;;;;;;32.20;18.33;;;;;;;1.50;75.25;100869.28;5006723;28;20133;-74
2022/03/05 05:54:08;;;;;;;27.70;18.00;;;;;;;2.16;74.45;100868.63;4996532;28;20049;-73
2022/03/05 05:56:34;;;;;;;27.65;19.13;;;;;;;2.38;73.84;100873.84;5004320;28;20088;-75
2022/03/05 05:58:59;;;;;;;47.72;25.83;;;;;;;2.47;73.76;100862.97;5007351;28;20046;-74
2022/03/05 06:01:25;;;;;;;38.47;25.63;;;;;;;2.46;72.95;100879.34;5009188;28;20053;-74
2022/03/05 06:03:52;;;;;;;36.15;25.55;;;;;;;2.46;72.45;100868.97;5010740;28;20042;-73
2022/03/05 06:06:17;;;;;;;36.00;28.15;;;;;;;2.11;72.81;100877.06;5007811;28;20071;-73
2022/03/05 06:08:43;;;;;;;36.47;24.98;;;;;;;2.28;73.51;100888.13;5009705;28;20462;-75
2022/03/05 06:11:09;;;;;;;34.00;24.83;;;;;;;2.54;72.58;100894.34;5008562;28;20053;-75
2022/03/05 06:13:34;;;;;;;35.58;24.48;;;;;;;2.45;72.42;100873.25;4999838;28;20042;-73
2022/03/05 06:16:00;;;;;;;42.83;26.77;;;;;;;2.45;71.80;100883.63;5008918;28;20038;-73
2022/03/05 06:18:25;;;;;;;31.13;20.13;;;;;;;2.57;71.46;100887.53;5009445;28;20050;-75
2022/03/05 06:20:51;;;;;;;43.40;28.05;;;;;;;2.38;72.41;100891.97;5009231;28;20030;-75
2022/03/05 06:23:19;;;;;;;49.53;25.70;;;;;;;1.96;73.22;100909.19;5006690;28;21442;-75
2022/03/05 06:25:45;;;;;;;47.72;30.55;;;;;;;2.01;74.02;100899.91;5008991;28;20042;-74
2022/03/05 06:28:11;;;;;;;33.50;19.25;;;;;;;1.57;74.11;100906.63;5009148;28;20084;-73
2022/03/05 06:30:36;;;;;;;43.97;28.90;;;;;;;1.88;74.03;100906.28;5001009;28;20050;-75
2022/03/05 06:33:02;;;;;;;41.95;28.90;;;;;;;1.75;73.71;100909.13;5001130;28;20105;-75
2022/03/05 06:35:28;;;;;;;40.50;21.30;;;;;;;2.37;72.65;100920.41;5008727;28;20038;-74
2022/03/05 06:37:54;;;;;;;40.35;28.15;;;;;;;2.21;71.13;100905.94;5006934;28;20041;-74
2022/03/05 06:40:19;;;;;;;43.78;29.15;;;;;;;2.08;73.01;100912.28;5006917;28;20065;-74
2022/03/05 06:42:46;;;;;;;29.88;20.77;;;;;;;2.04;72.13;100921.63;5008717;28;20045;-74
2022/03/05 06:45:12;;;;;;;31.73;26.98;;;;;;;1.61;73.59;100909.41;5006688;28;20124;-74
2022/03/05 06:47:38;;;;;;;30.52;19.00;;;;;;;1.99;72.28;100923.16;5004723;28;20042;-74
2022/03/05 06:50:06;;;;;;;33.47;25.95;;;;;;;2.27;72.17;100926.88;5004980;28;20084;-74
2022/03/05 06:52:32;;;;;;;38.50;28.52;;;;;;;2.23;72.39;100925.88;5010879;28;20080;-74
2022/03/05 06:55:00;;;;;;;36.08;28.08;;;;;;;2.51;70.83;100914.97;5012832;28;20118;-74
2022/03/05 06:57:26;;;;;;;43.28;29.70;;;;;;;2.40;71.65;100933.47;5011384;28;20426;-74
2022/03/05 06:59:51;;;;;;;46.53;29.67;;;;;;;2.81;70.97;100926.47;5010082;28;20040;-74
2022/03/05 07:02:17;;;;;;;32.10;21.67;;;;;;;2.69;70.85;100932.97;5018174;28;20037;-74
2022/03/05 07:04:43;;;;;;;43.47;31.42;;;;;;;2.17;72.63;100935.09;5012396;28;20490;-74
2022/03/05 07:07:08;;;;;;;27.27;20.67;;;;;;;2.44;71.46;100932.78;5009755;28;20416;-74
2022/03/05 07:09:34;;;;;;;32.33;20.60;;;;;;;2.73;70.81;100933.94;5003995;28;20048;-74
2022/03/05 07:12:00;;;;;;;40.13;30.25;;;;;;;2.84;70.82;100935.28;5011988;28;20030;-75
2022/03/05 07:14:26;;;;;;;38.83;29.23;;;;;;;2.86;70.38;100923.25;5011836;28;20050;-73
2022/03/05 07:16:52;;;;;;;33.28;20.75;;;;;;;3.19;70.00;100935.75;5012226;28;20034;-74
2022/03/05 07:19:17;;;;;;;36.72;29.30;;;;;;;2.67;70.96;100936.28;5011663;28;20148;-73
2022/03/05 07:21:43;;;;;;;54.05;31.52;;;;;;;2.07;73.18;100945.06;5007238;28;20481;-74
2022/03/05 07:24:08;;;;;;;40.95;29.70;;;;;;;2.43;72.30;100946.53;5006184;28;20041;-73
2022/03/05 07:26:35;;;;;;;43.38;30.80;;;;;;;2.93;71.20;100951.19;5004347;28;20033;-74
2022/03/05 07:29:00;;;;;;;44.20;28.30;;;;;;;2.66;70.98;100953.53;5001323;28;20045;-74
2022/03/05 07:31:26;;;;;;;40.97;29.30;;;;;;;2.92;70.62;100954.56;5011692;28;20125;-73
2022/03/05 07:33:51;;;;;;;43.92;27.08;;;;;;;3.32;70.11;100950.94;5013211;28;20080;-74
2022/03/05 07:36:17;;;;;;;49.25;31.50;;;;;;;3.37;68.91;100949.44;5008460;28;20033;-73
2022/03/05 07:38:44;;;;;;;40.30;31.52;;;;;;;3.51;68.24;100952.53;5014817;28;20374;-74
2022/03/05 07:41:10;;;;;;;41.40;32.72;;;;;;;3.15;69.50;100971.03;5013692;28;20113;-74
2022/03/05 07:44:10;;;;;;;42.70;30.30;;;;;;;3.31;69.37;100964.75;5012370;28;20062;-74
2022/03/05 07:47:12;;;;;;;38.47;30.13;;;;;;;3.49;69.21;100968.84;5011053;28;20572;-74
2022/03/05 07:49:37;;;;;;;38.88;32.20;;;;;;;3.55;69.47;100957.00;5011191;28;20217;-74
2022/03/05 07:52:22;;;;;;;50.13;30.48;;;;;;;3.74;69.30;100968.94;5011427;28;20038;-74
2022/03/05 07:54:47;;;;;;;41.80;30.23;;;;;;;3.56;68.82;100961.38;5002219;28;20045;-74
2022/03/05 08:00:49;;;;;;;62.25;34.75;;;;;;;3.12;70.76;100970.06;5011042;28;20045;-74
2022/03/05 08:03:14;;;;;;;48.33;31.73;;;;;;;3.10;70.35;100977.75;5009362;28;20560;-74
2022/03/05 08:05:41;;;;;;;41.75;30.38;;;;;;;2.94;71.42;100970.19;5011348;28;20034;-74
2022/03/05 08:08:07;;;;;;;38.20;30.02;;;;;;;3.21;70.58;100975.59;5010806;28;20552;-74
2022/03/05 08:10:33;;;;;;;42.20;29.60;;;;;;;2.94;70.98;100962.44;5011997;28;20042;-74
2022/03/05 08:12:58;;;;;;;39.20;32.38;;;;;;;2.92;71.03;100967.53;5013132;28;20121;-75
2022/03/05 08:15:24;;;;;;;47.63;31.33;;;;;;;2.98;71.77;100964.31;5013771;28;20038;-77
2022/03/05 08:21:52;;;;;;;44.25;32.88;;;;;;;2.67;72.48;100970.88;5010643;28;20049;-77
2022/03/05 08:24:56;;;;;;;37.95;28.75;;;;;;;2.90;72.49;100978.66;5010239;28;20854;-76
2022/03/05 08:28:12;;;;;;;29.42;20.80;;;;;;;3.36;70.97;100967.50;5007079;28;20573;-75
2022/03/05 08:30:40;;;;;;;39.17;31.92;;;;;;;3.49;70.40;100974.94;5002081;28;20073;-74
2022/03/05 08:33:05;;;;;;;40.40;31.75;;;;;;;3.99;68.89;100983.69;5012955;28;20560;-72
2022/03/05 08:35:31;;;;;;;57.60;34.33;;;;;;;3.51;69.96;100983.69;5011143;28;20034;-74
2022/03/05 08:37:56;;;;;;;44.05;32.70;;;;;;;3.78;68.45;100969.94;5010602;28;20041;-74
2022/03/05 08:40:22;;;;;;;46.80;32.85;;;;;;;3.82;69.78;100984.81;5010603;28;20042;-74
2022/03/05 08:42:49;;;;;;;50.88;32.22;;;;;;;3.01;71.78;100976.53;5013285;28;20061;-74
2022/03/05 08:48:37;;;;;;;50.28;34.60;;;;;;;3.30;72.68;100991.53;4993531;28;20037;-74
2022/03/05 08:54:25;;;;;;;57.30;34.65;;;;;;;3.39;72.12;100972.81;5012017;28;20041;-74
2022/03/05 08:57:03;;;;;;;47.83;33.83;;;;;;;3.53;72.11;100984.59;5008014;28;20025;-74
2022/03/05 08:59:28;;;;;;;39.47;30.38;;;;;;;3.65;70.44;100991.94;5003508;28;20044;-75
2022/03/05 09:01:54;;;;;;;47.42;35.20;;;;;;;2.98;72.36;100990.25;5003657;28;20043;-75
2022/03/05 09:04:19;;;;;;;46.45;34.92;;;;;;;3.96;69.62;100985.31;5008674;28;20482;-77
2022/03/05 09:06:45;;;;;;;44.40;33.13;;;;;;;3.38;71.12;100987.50;5008925;28;20042;-76
2022/03/05 09:09:10;;;;;;;47.80;33.38;;;;;;;3.09;71.80;100990.66;5006158;28;20067;-75
2022/03/05 09:11:37;;;;;;;45.90;33.45;;;;;;;3.32;71.62;100995.03;5009465;28;20038;-75
2022/03/05 09:14:04;;;;;;;50.13;33.35;;;;;;;3.11;72.59;101004.56;5005853;28;20386;-77
2022/03/05 09:16:30;;;;;;;41.40;30.75;;;;;;;2.69;73.06;100986.47;5006070;28;20049;-75
2022/03/05 09:18:55;;;;;;;39.00;29.27;;;;;;;3.22;72.75;100999.81;5008762;28;20079;-78
2022/03/05 09:21:21;;;;;;;43.80;32.08;;;;;;;3.03;72.83;100996.50;5008747;28;20473;-75
2022/03/05 09:23:47;;;;;;;42.60;29.95;;;;;;;3.35;72.15;101002.94;5002649;28;20018;-75
2022/03/05 09:26:15;;;;;;;31.42;22.38;;;;;;;3.96;70.50;100999.16;5001763;28;20042;-77
2022/03/05 09:28:41;;;;;;;46.47;29.60;;;;;;;3.63;70.65;100995.31;5009323;28;20080;-80
2022/03/05 09:31:07;;;;;;;49.70;33.38;;;;;;;4.26;69.81;100997.59;5008206;28;20073;-80
2022/03/05 09:33:32;;;;;;;43.67;29.42;;;;;;;4.23;70.00;100998.38;5005820;28;20048;-79
2022/03/05 09:35:58;;;;;;;35.88;29.52;;;;;;;3.64;70.03;100987.59;5010254;28;20034;-80
2022/03/05 09:38:23;;;;;;;45.30;28.95;;;;;;;4.01;69.45;100988.94;5004689;28;20121;-80
2022/03/05 09:40:49;;;;;;;47.70;30.13;;;;;;;3.39;70.19;100998.75;5004531;28;20042;-79
2022/03/05 09:43:18;;;;;;;40.60;29.08;;;;;;;3.55;70.17;100988.13;5007064;28;20069;-77
2022/03/05 09:45:44;;;;;;;41.65;27.23;;;;;;;2.98;71.13;100984.19;5008389;28;20527;-75
2022/03/05 09:48:11;;;;;;;38.90;29.70;;;;;;;3.25;71.20;100998.22;5007335;28;20112;-80
2022/03/05 09:50:37;;;;;;;37.40;29.88;;;;;;;3.53;71.75;100994.97;5005606;28;20025;-76
2022/03/05 09:53:03;;;;;;;39.20;22.30;;;;;;;3.82;70.85;101008.16;4998110;28;20414;-79
2022/03/05 09:58:51;;;;;;;40.88;28.67;;;;;;;4.32;68.42;100996.09;4992849;28;20069;-81
2022/03/05 10:01:23;;;;;;;39.15;27.15;;;;;;;3.53;70.63;100999.28;5003158;28;20106;-78
2022/03/05 10:03:55;;;;;;;38.65;27.90;;;;;;;3.79;70.48;101005.44;5004310;28;20050;-81
2022/03/05 10:06:29;;;;;;;38.20;28.48;;;;;;;3.61;70.72;100991.81;5003386;28;20045;-78
2022/03/05 10:08:56;;;;;;;38.33;25.58;;;;;;;4.15;71.09;100987.72;5005080;28;20052;-77
2022/03/05 10:11:23;;;;;;;37.65;28.73;;;;;;;4.67;68.94;100998.13;5007374;28;20137;-76
2022/03/05 10:13:49;;;;;;;37.72;25.75;;;;;;;4.61;68.31;100985.81;5004302;28;20101;-76
2022/03/05 10:16:39;;;;;;;34.53;25.98;;;;;;;4.67;66.93;100993.81;5002218;28;20172;-79
2022/03/05 10:19:22;;;;;;;37.55;27.23;;;;;;;4.31;67.89;100990.84;5006734;28;20038;-78
2022/03/05 10:22:04;;;;;;;36.42;24.20;;;;;;;4.38;67.65;100978.13;5002712;28;20050;-78
2022/03/05 10:24:41;;;;;;;30.67;24.33;;;;;;;5.17;66.29;100986.75;5000833;28;20031;-80
2022/03/05 10:30:29;;;;;;;31.65;23.20;;;;;;;5.41;64.84;100971.03;5006393;28;20053;-75
2022/03/05 10:32:55;;;;;;;31.17;23.92;;;;;;;4.80;66.31;100987.28;5010209;28;20037;-75
2022/03/05 10:35:20;;;;;;;30.35;23.45;;;;;;;4.84;66.86;100986.56;5008735;28;20038;-75
2022/03/05 10:37:51;;;;;;;32.42;25.33;;;;;;;5.62;65.49;100965.56;5012103;28;20038;-76
2022/03/05 10:40:31;;;;;;;34.90;24.55;;;;;;;4.94;65.39;100980.84;5007693;28;20066;-75
2022/03/05 10:43:03;;;;;;;33.50;23.73;;;;;;;4.50;67.49;100982.84;5007338;28;20045;-78
2022/03/05 10:45:29;;;;;;;36.53;23.45;;;;;;;5.73;64.10;100994.50;5007355;28;20050;-77
2022/03/05 10:47:57;;;;;;;27.98;22.48;;;;;;;5.13;65.23;100986.59;5007620;28;20462;-76
2022/03/05 10:50:26;;;;;;;30.05;22.33;;;;;;;5.13;64.66;100981.41;5005105;28;20034;-76
2022/03/05 10:53:02;;;;;;;29.00;21.90;;;;;;;6.00;62.76;100988.34;5005968;28;20494;-75
2022/03/05 10:55:34;;;;;;;25.85;19.75;;;;;;;5.69;62.41;100974.44;5007773;28;20409;-76
2022/03/05 10:58:14;;;;;;;25.52;20.70;;;;;;;5.98;62.62;100980.50;5006337;28;20327;-77
2022/03/05 11:00:43;;;;;;;32.42;22.77;;;;;;;5.92;61.66;100969.84;5006006;28;20489;-74
2022/03/05 11:03:09;;;;;;;31.45;22.50;;;;;;;6.17;62.27;100968.84;5008820;28;20032;-77
2022/03/05 11:05:36;;;;;;;28.23;20.67;;;;;;;5.77;64.05;100982.47;5007975;28;20108;-74
2022/03/05 11:08:03;;;;;;;30.98;22.25;;;;;;;6.59;61.73;100982.97;5007335;28;20045;-75
2022/03/05 11:10:29;;;;;;;32.90;21.17;;;;;;;6.05;63.51;100972.00;5020721;28;20046;-74
2022/03/05 11:13:02;;;;;;;28.02;22.05;;;;;;;5.40;63.94;100974.44;5005817;28;20076;-75
2022/03/05 11:15:29;;;;;;;35.08;23.10;;;;;;;6.04;63.36;100966.75;5008203;28;20128;-76
2022/03/05 11:21:36;;;;;;;33.70;22.45;;;;;;;6.07;63.97;100985.06;5009716;28;20057;-76
2022/03/05 11:24:06;;;;;;;27.73;21.17;;;;;;;5.14;64.91;100972.78;5008740;28;20104;-76
2022/03/05 11:26:33;;;;;;;26.00;20.70;;;;;;;4.91;65.51;100970.31;5006371;28;20111;-75
2022/03/05 11:28:59;;;;;;;33.33;24.35;;;;;;;5.62;64.91;100980.28;5003762;28;20053;-75
2022/03/05 11:31:31;;;;;;;32.45;22.98;;;;;;;6.17;63.26;100981.00;4998799;28;20084;-74
2022/03/05 11:34:12;;;;;;;30.85;21.10;;;;;;;6.05;62.22;100978.94;5003638;28;20042;-75
2022/03/05 11:36:38;;;;;;;29.05;22.17;;;;;;;5.69;63.39;100967.50;4995032;28;20043;-75
2022/03/05 11:39:29;;;;;;;34.00;23.27;;;;;;;6.38;61.86;100970.25;4996283;28;20026;-75
2022/03/05 11:42:04;;;;;;;35.05;22.30;;;;;;;6.53;61.54;100963.72;5005179;28;20042;-74
2022/03/05 11:44:45;;;;;;;27.38;21.40;;;;;;;6.15;62.82;100962.69;5006582;28;20077;-74
2022/03/05 11:47:31;;;;;;;29.33;21.70;;;;;;;5.55;63.51;100965.31;5006017;28;20052;-74
2022/03/05 11:49:59;;;;;;;27.35;21.98;;;;;;;5.29;64.42;100960.22;5006423;28;20655;-74
2022/03/05 11:52:42;;;;;;;33.55;24.08;;;;;;;6.04;63.24;100961.53;5005042;28;20053;-74
2022/03/05 11:55:11;;;;;;;32.08;22.38;;;;;;;6.13;62.73;100978.31;5006433;28;20037;-75
2022/03/05 11:57:41;;;;;;;33.58;26.02;;;;;;;5.80;63.13;100967.78;5006520;28;20148;-75
2022/03/05 12:00:08;;;;;;;34.35;24.63;;;;;;;6.07;62.67;100957.28;5007875;28;20038;-74
2022/03/05 12:02:45;;;;;;;30.58;23.73;;;;;;;6.20;61.65;100974.13;5007802;28;20083;-75
2022/03/05 12:05:44;;;;;;;30.15;21.35;;;;;;;5.94;62.21;100970.81;5003144;28;20483;-74
2022/03/05 12:08:10;;;;;;;34.13;22.60;;;;;;;6.12;62.18;100973.06;5004549;28;20325;-75
2022/03/05 12:10:40;;;;;;;32.25;22.63;;;;;;;6.15;61.09;100969.66;5007696;28;20045;-75
2022/03/05 12:13:08;;;;;;;35.67;23.85;;;;;;;5.22;63.58;100972.19;5005450;28;20133;-75
2022/03/05 12:15:35;;;;;;;32.45;22.00;;;;;;;5.25;63.96;100959.25;5005363;28;20077;-74
2022/03/05 12:18:03;;;;;;;36.08;22.98;;;;;;;6.03;64.29;100959.78;5007442;28;20038;-74
2022/03/05 12:20:34;;;;;;;33.45;25.30;;;;;;;6.30;61.54;100964.84;5007700;28;20056;-75
2022/03/05 12:23:19;;;;;;;33.85;24.05;;;;;;;6.58;61.29;100962.94;5007015;28;20421;-74